Aeroporto :
LOGIN :

Iscrizione | Disclaimer

   EN    FR    IT 

 










Sommario :    VFR   VFR Marginale   IFR   IFR Intensivo   IFR Molto Intensivo
Visibilità : 
Base nubi : 
>= 8 km
>= 3000ft
5 / 8 km
1000 / 3000 ft
1500m / 5 km
500 / 1000 ft
800 / 1500m
200 / 500 ft
< 800m
< 200 ft
Simboli :   Temporali  Nebbia  Neve Forte  Precipitazioni Forti  Vento > 20 kt
SIGMETs :   Varie  Temporali  Ghiacco  Turbolenza  Onda orograficha  Ceneri Vulcaniche







- Altitudine del aeroporto : 436 ft
- Codice IATA : ANG
- Carte del aeroporto


LFBU - Angoulême Brie Champniers

ULTIMO METAR :
  • 210600Z AUTO 13003KT CAVOK 11/09 Q1019 NOSIG

METARs OBSOLETI :
  • 210530Z AUTO 00000KT CAVOK 11/09 Q1019 BECMG 18010KT
  • 210500Z AUTO 16004KT CAVOK 11/10 Q1018
  • 210430Z AUTO VRB03KT CAVOK 12/10 Q1018
  • 210400Z AUTO 10001KT CAVOK 11/09 Q1018
  • 210330Z AUTO 16003KT CAVOK 12/10 Q1019

TAF TAF LFBU
Valido dal 21 a 06 ore il 22 a 06 ore UTC


210500Z 2106/2206 VRB03KT CAVOK
BECMG 2107/2109 18010KT
TEMPO 2113/2116 16015G25KT 4000 SHRA BKN050TCU
PROB30
TEMPO 2113/2116 3000 TSRA BKN050CB
BECMG 2116/2119 04005KT
Nessun NOTAM noto per questo aeroporto.



MetMap, La meteo Aeronautica in un colpo d'occhio ! - Copyright ORBIFLY Dicembre 2007 - Disclaimer

ORBIFLY MET'MAP TEAM :

Programmazione e sviluppo : Alexandra Zaïnal
Concezione e sviluppo : Baudouin d'Aumeries
Co-Programmazione e sviluppo : Marc-Olivier Méhu
Supporto tecnico e logistico : Manuel Goepfert
Aiuto per la traduzione : Arnaldo La Scala

Contatto : metmap@orbifly.com




FONTI E CREDITI :

   NOAA